Arrington Corner, Kentucky
Current Conditions -  °F | °C
As of 6:56 PM on Friday 19 Dec 2014 (Local Time) from KOWB Reporting Station
Clear Clear  
Wind Chill: 27°   Ceiling: Unl
Heat Index: 33°   Visibility: 10mi
Dew Point: 24°   Wind: 6mph
Humidity: 70%   Direction: 50°NE
Pressure: 30.28"   Gusts: NA
Location:  37.8331°N, 86.7635°W
Report Text: KOWB 200056Z 05005KT 10SM CLR 01/M04 A3028 RMK AO2 T00051044 SLP259
Loading
Personal Weather Stations






























Interactive Weather Map New forecast layout! Learn more

10-Day Weather Forecast

Advertisements
Track Severe Weather on mobile